Time;durP1;ratioP1;P1;durP2;ratioP2;P2;SDS_P1;SDS_P2;PMS_P1;PMS_P2;Temp;Humidity;BMP_temperature;BMP_pressure;BME280_temperature;BME280_humidity;BME280_pressure;Samples;Min_cycle;Max_cycle;Signal;HPM_P1;HPM_P2
2024/01/23 00:00:40;;;;;;;20.95;2.62;;;8.10;99.90;;;;;;7335813;32;20515;-56
2024/01/23 00:04:42;;;;;;;17.20;3.00;;;8.10;99.90;;;;;;7340562;32;20170;-56
2024/01/23 00:08:44;;;;;;;13.95;2.53;;;8.10;99.90;;;;;;7342394;32;20525;-57
2024/01/23 00:12:46;;;;;;;17.48;2.72;;;8.20;99.90;;;;;;7343874;32;20180;-56
2024/01/23 00:16:48;;;;;;;19.25;2.35;;;8.10;99.90;;;;;;7335060;32;20119;-56
2024/01/23 00:20:50;;;;;;;16.05;2.22;;;8.00;99.90;;;;;;7339755;32;20235;-57
2024/01/23 00:24:51;;;;;;;14.85;2.08;;;7.90;99.90;;;;;;7338688;32;20450;-57
2024/01/23 00:28:53;;;;;;;15.00;2.05;;;7.90;99.90;;;;;;7341388;32;20241;-56
2024/01/23 00:32:55;;;;;;;18.50;2.50;;;7.90;99.90;;;;;;7334547;32;20331;-56
2024/01/23 00:36:58;;;;;;;24.30;2.80;;;7.90;99.90;;;;;;7341590;32;20882;-56
2024/01/23 00:41:00;;;;;;;22.27;3.00;;;8.00;99.90;;;;;;7338961;32;20125;-56
2024/01/23 00:45:03;;;;;;;15.63;2.33;;;7.80;99.90;;;;;;7338193;32;20111;-56
2024/01/23 00:49:06;;;;;;;15.27;2.00;;;7.90;99.90;;;;;;7344889;32;20510;-56
2024/01/23 00:53:08;;;;;;;13.50;1.62;;;7.90;99.90;;;;;;7342298;32;20134;-56
2024/01/23 00:57:10;;;;;;;11.15;1.27;;;7.80;99.90;;;;;;7343638;32;20179;-56
2024/01/23 01:01:12;;;;;;;14.90;2.83;;;7.90;99.90;;;;;;7332640;32;20186;-56
2024/01/23 01:05:13;;;;;;;14.77;2.20;;;8.00;99.90;;;;;;7343866;32;20205;-56
2024/01/23 01:09:15;;;;;;;21.70;2.22;;;7.90;99.90;;;;;;7343055;32;20209;-55
2024/01/23 01:13:17;;;;;;;19.77;2.20;;;7.90;99.90;;;;;;7342966;32;20158;-56
2024/01/23 01:17:19;;;;;;;16.23;2.47;;;7.80;99.90;;;;;;7342033;32;20261;-56
2024/01/23 01:21:21;;;;;;;17.17;2.67;;;7.80;99.90;;;;;;7345270;32;20701;-57
2024/01/23 01:25:24;;;;;;;17.67;2.20;;;7.80;99.90;;;;;;7341125;32;20126;-56
2024/01/23 01:29:26;;;;;;;17.23;2.10;;;7.70;99.90;;;;;;7337872;32;20546;-55
2024/01/23 01:33:28;;;;;;;19.00;2.85;;;7.60;99.90;;;;;;7335849;32;20181;-56
2024/01/23 01:37:30;;;;;;;19.37;2.00;;;7.60;99.90;;;;;;7339392;32;20261;-56
2024/01/23 01:41:31;;;;;;;16.20;2.10;;;7.60;99.90;;;;;;7341534;32;20099;-56
2024/01/23 01:45:33;;;;;;;17.77;2.67;;;7.70;99.90;;;;;;7341994;32;20209;-55
2024/01/23 01:49:35;;;;;;;19.77;2.22;;;7.70;99.90;;;;;;7340643;32;20111;-56
2024/01/23 01:53:39;;;;;;;14.27;2.47;;;7.80;99.90;;;;;;7341286;32;20385;-56
2024/01/23 01:57:42;;;;;;;19.10;2.75;;;7.70;99.90;;;;;;7342609;32;20198;-56
2024/01/23 02:01:44;;;;;;;20.35;3.95;;;7.80;99.90;;;;;;7336544;32;20111;-56
2024/01/23 02:05:45;;;;;;;13.00;2.25;;;7.70;99.90;;;;;;7329597;32;20212;-56
2024/01/23 02:09:47;;;;;;;17.58;2.12;;;7.70;99.90;;;;;;7340092;32;20207;-56
2024/01/23 02:13:49;;;;;;;17.10;3.05;;;7.70;99.90;;;;;;7335167;32;20490;-57
2024/01/23 02:17:51;;;;;;;20.15;2.55;;;7.70;99.90;;;;;;7337582;32;20178;-56
2024/01/23 02:21:54;;;;;;;12.20;1.87;;;7.70;99.90;;;;;;7337413;32;20156;-56
2024/01/23 02:25:56;;;;;;;8.55;1.80;;;7.70;99.90;;;;;;7341647;32;20134;-57
2024/01/23 02:29:58;;;;;;;18.98;1.98;;;7.70;99.90;;;;;;7340231;32;20217;-56
2024/01/23 02:33:59;;;;;;;11.65;2.15;;;7.70;99.90;;;;;;7335274;32;20208;-57
2024/01/23 02:38:02;;;;;;;16.62;2.00;;;7.60;99.90;;;;;;7343515;32;20107;-56
2024/01/23 02:42:04;;;;;;;16.73;2.12;;;7.70;99.90;;;;;;7338318;32;20119;-56
2024/01/23 02:46:05;;;;;;;15.32;2.08;;;7.60;99.90;;;;;;7337803;32;20576;-56
2024/01/23 02:50:08;;;;;;;13.32;2.00;;;7.70;99.90;;;;;;7333581;32;20183;-56
2024/01/23 02:54:10;;;;;;;12.00;2.17;;;7.60;99.90;;;;;;7341767;32;20107;-55
2024/01/23 02:58:12;;;;;;;14.77;1.85;;;7.60;99.90;;;;;;7340428;32;20546;-57
2024/01/23 03:02:14;;;;;;;13.10;1.77;;;7.50;99.90;;;;;;7335939;32;20133;-57
2024/01/23 03:06:15;;;;;;;9.82;1.67;;;7.60;99.90;;;;;;7339465;32;20152;-57
2024/01/23 03:10:17;;;;;;;12.20;1.90;;;7.50;99.90;;;;;;7327437;32;20525;-57
2024/01/23 03:14:19;;;;;;;14.77;1.60;;;7.40;99.90;;;;;;7326047;32;20180;-57
2024/01/23 03:18:21;;;;;;;11.20;1.75;;;7.30;99.90;;;;;;7338488;32;20234;-57
2024/01/23 03:22:23;;;;;;;9.77;1.83;;;7.30;99.90;;;;;;7333541;32;20183;-56
2024/01/23 03:26:25;;;;;;;17.10;2.47;;;7.20;99.90;;;;;;7338835;32;20517;-56
2024/01/23 03:30:31;;;;;;;13.65;2.40;;;7.20;99.90;;;;;;7338005;32;20203;-57
2024/01/23 03:34:34;;;;;;;11.43;1.55;;;7.10;99.90;;;;;;7337579;32;20345;-57
2024/01/23 03:38:35;;;;;;;11.95;2.20;;;7.00;99.90;;;;;;7345296;32;20135;-58
2024/01/23 03:42:37;;;;;;;14.35;2.35;;;7.00;99.90;;;;;;7340189;32;20130;-57
2024/01/23 03:46:39;;;;;;;13.88;1.65;;;6.80;99.90;;;;;;7342933;32;20111;-56
2024/01/23 03:50:41;;;;;;;11.30;1.67;;;6.80;99.90;;;;;;7335807;32;20159;-56
2024/01/23 03:54:43;;;;;;;13.02;1.90;;;6.70;99.90;;;;;;7330288;32;20225;-57
2024/01/23 03:58:45;;;;;;;16.20;1.77;;;6.60;99.90;;;;;;7340032;32;20119;-56
2024/01/23 04:02:46;;;;;;;11.32;1.85;;;6.60;99.90;;;;;;7341490;32;20150;-57
2024/01/23 04:06:48;;;;;;;18.12;2.08;;;6.60;99.90;;;;;;7343612;32;20269;-56
2024/01/23 04:10:50;;;;;;;14.77;2.33;;;6.60;99.90;;;;;;7345498;32;20147;-56
2024/01/23 04:14:52;;;;;;;14.70;1.80;;;6.50;99.90;;;;;;7342602;32;20241;-56
2024/01/23 04:18:54;;;;;;;11.35;2.10;;;6.50;99.90;;;;;;7343016;32;20119;-56
2024/01/23 04:22:59;;;;;;;16.40;2.22;;;6.40;99.90;;;;;;7327542;32;20541;-56
2024/01/23 04:27:01;;;;;;;16.40;2.10;;;6.40;99.90;;;;;;7343339;32;20284;-56
2024/01/23 04:31:02;;;;;;;16.05;2.42;;;6.40;99.90;;;;;;7336545;32;20218;-56
2024/01/23 04:35:05;;;;;;;13.23;2.17;;;6.40;99.90;;;;;;7342617;32;20103;-56
2024/01/23 04:39:06;;;;;;;16.70;2.20;;;6.40;99.90;;;;;;7339360;32;20130;-57
2024/01/23 04:43:08;;;;;;;14.90;1.83;;;6.50;99.90;;;;;;7333810;32;20743;-55
2024/01/23 04:47:10;;;;;;;14.30;2.03;;;6.60;99.90;;;;;;7342436;32;20137;-56
2024/01/23 04:51:12;;;;;;;20.02;2.58;;;6.60;99.90;;;;;;7342950;32;20119;-56
2024/01/23 04:55:14;;;;;;;15.38;2.05;;;6.50;99.90;;;;;;7339550;32;20111;-56
2024/01/23 04:59:16;;;;;;;18.55;2.00;;;6.60;99.90;;;;;;7334563;32;20489;-57
2024/01/23 05:03:17;;;;;;;12.68;1.90;;;6.60;99.90;;;;;;7338437;32;20148;-56
2024/01/23 05:07:19;;;;;;;19.92;2.75;;;6.60;99.90;;;;;;7331388;32;20190;-56
2024/01/23 05:11:21;;;;;;;15.50;2.08;;;6.60;99.90;;;;;;7338032;32;20127;-56
2024/01/23 05:15:23;;;;;;;15.02;2.28;;;6.60;99.90;;;;;;7340655;32;20248;-56
2024/01/23 05:19:25;;;;;;;22.80;2.58;;;6.50;99.90;;;;;;7337287;32;20563;-56
2024/01/23 05:23:27;;;;;;;19.05;2.55;;;6.50;99.90;;;;;;7324389;32;20323;-56
2024/01/23 05:27:29;;;;;;;15.30;2.10;;;6.40;99.90;;;;;;7339630;32;20138;-56
2024/01/23 05:31:31;;;;;;;17.50;2.62;;;6.30;99.90;;;;;;7324843;32;20475;-56
2024/01/23 05:35:33;;;;;;;14.82;2.12;;;6.20;99.90;;;;;;7339472;32;20111;-56
2024/01/23 05:39:37;;;;;;;18.20;2.05;;;6.10;99.90;;;;;;7338571;32;20112;-56
2024/01/23 05:43:39;;;;;;;14.07;2.33;;;6.00;99.90;;;;;;7340477;32;20138;-56
2024/01/23 05:47:40;;;;;;;15.45;1.92;;;5.90;99.90;;;;;;7335913;32;20498;-56
2024/01/23 05:51:42;;;;;;;12.85;2.10;;;5.90;99.90;;;;;;7340760;32;20110;-56
2024/01/23 05:55:44;;;;;;;15.05;2.75;;;5.90;99.90;;;;;;7343871;32;20143;-57
2024/01/23 05:59:46;;;;;;;18.92;2.17;;;5.80;99.90;;;;;;7345298;32;20134;-56
2024/01/23 06:03:47;;;;;;;19.87;2.92;;;5.70;99.90;;;;;;7340452;32;20358;-55
2024/01/23 06:07:50;;;;;;;17.55;2.47;;;5.70;99.90;;;;;;7339979;32;20174;-55
2024/01/23 06:11:52;;;;;;;17.20;2.03;;;5.70;99.90;;;;;;7341439;32;20136;-56
2024/01/23 06:15:54;;;;;;;18.33;2.37;;;5.60;99.90;;;;;;7344770;32;20195;-58
2024/01/23 06:19:55;;;;;;;17.37;2.17;;;5.70;99.90;;;;;;7333382;32;20130;-56
2024/01/23 06:23:58;;;;;;;13.10;1.90;;;5.70;99.90;;;;;;7343785;32;20167;-56
2024/01/23 06:28:00;;;;;;;12.37;1.87;;;5.70;99.90;;;;;;7338685;32;20613;-56
2024/01/23 06:32:01;;;;;;;20.62;2.95;;;5.70;99.90;;;;;;7324213;32;20568;-56
2024/01/23 06:36:04;;;;;;;13.10;2.03;;;5.60;99.90;;;;;;7337643;32;20225;-55
2024/01/23 06:40:06;;;;;;;13.00;1.90;;;5.60;99.90;;;;;;7339024;32;20789;-56
2024/01/23 06:44:08;;;;;;;11.55;2.08;;;5.60;99.90;;;;;;7340195;32;20220;-56
2024/01/23 06:48:09;;;;;;;13.35;2.08;;;5.50;99.90;;;;;;7341581;32;20225;-56
2024/01/23 06:52:11;;;;;;;13.93;2.33;;;5.60;99.90;;;;;;7339030;32;20711;-55
2024/01/23 06:56:13;;;;;;;23.98;2.62;;;5.40;99.90;;;;;;7336261;32;20225;-56
2024/01/23 07:00:15;;;;;;;19.65;2.50;;;5.50;99.90;;;;;;7343075;32;20819;-56
2024/01/23 07:04:18;;;;;;;10.70;2.05;;;5.50;99.90;;;;;;7337596;32;20453;-56
2024/01/23 07:08:20;;;;;;;21.33;2.53;;;5.50;99.90;;;;;;7342325;32;20230;-56
2024/01/23 07:12:22;;;;;;;13.77;2.50;;;5.40;99.90;;;;;;7340168;32;20735;-55
2024/01/23 07:16:24;;;;;;;19.42;2.30;;;5.40;99.90;;;;;;7341225;32;20139;-56
2024/01/23 07:20:26;;;;;;;17.87;2.62;;;5.40;99.90;;;;;;7344645;32;20136;-56
2024/01/23 07:24:27;;;;;;;17.80;2.35;;;5.60;99.90;;;;;;7327392;32;20104;-58
2024/01/23 07:28:30;;;;;;;14.82;2.40;;;5.60;99.90;;;;;;7328120;32;20653;-57
2024/01/23 07:32:34;;;;;;;16.15;2.67;;;5.60;99.90;;;;;;7341172;32;20214;-58
2024/01/23 07:36:36;;;;;;;16.37;2.15;;;5.60;99.90;;;;;;7345485;32;20142;-56
2024/01/23 07:40:39;;;;;;;14.82;2.22;;;5.60;99.90;;;;;;7340846;32;20422;-58
2024/01/23 07:44:42;;;;;;;20.40;2.55;;;5.50;99.90;;;;;;7344187;32;20150;-59
2024/01/23 07:48:44;;;;;;;13.57;2.17;;;5.50;99.90;;;;;;7351323;32;20103;-57
2024/01/23 07:52:46;;;;;;;14.68;2.37;;;5.50;99.90;;;;;;7345452;32;20197;-59
2024/01/23 07:56:50;;;;;;;22.33;2.62;;;5.50;99.90;;;;;;7342653;32;20107;-59
2024/01/23 08:00:52;;;;;;;17.83;2.20;;;5.40;99.90;;;;;;7313355;32;20133;-56
2024/01/23 08:04:54;;;;;;;15.70;2.42;;;5.50;99.90;;;;;;7338175;32;20222;-56
2024/01/23 08:08:56;;;;;;;24.98;3.17;;;5.50;99.90;;;;;;7342704;32;20103;-56
2024/01/23 08:12:57;;;;;;;18.12;2.58;;;5.40;99.90;;;;;;7332208;32;20103;-57
2024/01/23 08:16:59;;;;;;;18.35;2.97;;;5.50;99.90;;;;;;7342642;32;20667;-57
2024/01/23 08:21:03;;;;;;;14.73;1.77;;;5.50;99.90;;;;;;7330648;32;20198;-57
2024/01/23 08:25:05;;;;;;;13.32;2.58;;;5.50;99.90;;;;;;7343153;32;20143;-58
2024/01/23 08:29:07;;;;;;;24.85;2.92;;;5.60;99.90;;;;;;7340589;32;20096;-57
2024/01/23 08:33:12;;;;;;;24.42;3.03;;;5.60;99.90;;;;;;7342122;32;20692;-57
2024/01/23 08:37:22;;;;;;;23.17;2.80;;;5.60;99.90;;;;;;7344836;32;20111;-57
2024/01/23 08:41:24;;;;;;;12.98;2.10;;;5.70;99.90;;;;;;7335553;32;20540;-57
2024/01/23 08:45:26;;;;;;;15.52;2.37;;;5.70;99.90;;;;;;7342991;32;20392;-57
2024/01/23 08:49:28;;;;;;;17.65;2.60;;;5.70;99.90;;;;;;7340235;32;20171;-58
2024/01/23 08:53:30;;;;;;;16.73;2.53;;;5.80;99.90;;;;;;7322439;32;20205;-57
2024/01/23 08:57:32;;;;;;;12.70;2.17;;;5.80;99.90;;;;;;7341977;32;20115;-59
2024/01/23 09:01:33;;;;;;;14.90;3.05;;;5.90;99.90;;;;;;7338075;32;20125;-56
2024/01/23 09:05:35;;;;;;;19.05;2.17;;;5.90;99.90;;;;;;7342644;32;20649;-57
2024/01/23 09:09:45;;;;;;;14.75;2.15;;;5.90;99.90;;;;;;7326984;32;20224;-57
2024/01/23 09:13:47;;;;;;;17.92;3.47;;;6.00;99.90;;;;;;7334259;32;20127;-58
2024/01/23 09:17:49;;;;;;;12.43;2.15;;;6.00;99.90;;;;;;7338653;32;20111;-57
2024/01/23 09:21:51;;;;;;;15.27;1.92;;;6.00;99.90;;;;;;7335130;32;20138;-57
2024/01/23 09:25:53;;;;;;;15.38;2.37;;;6.10;99.90;;;;;;7347208;32;20225;-57
2024/01/23 09:29:54;;;;;;;16.58;2.35;;;6.20;99.90;;;;;;7334315;32;20241;-58
2024/01/23 09:33:57;;;;;;;19.20;2.83;;;6.20;99.90;;;;;;7336022;32;20195;-57
2024/01/23 09:37:59;;;;;;;16.17;2.50;;;6.30;99.90;;;;;;7335612;32;20310;-57
2024/01/23 09:42:04;;;;;;;17.52;2.28;;;6.30;99.90;;;;;;7341479;32;20131;-57
2024/01/23 09:46:11;;;;;;;21.25;3.05;;;6.40;99.90;;;;;;7338143;32;20139;-57
2024/01/23 09:50:13;;;;;;;;;;;6.40;99.90;;;;;;7336149;32;20239;-57
2024/01/23 09:54:15;;;;;;;17.08;2.33;;;6.50;99.90;;;;;;7335662;32;20010;-58
2024/01/23 09:58:18;;;;;;;17.02;2.47;;;6.60;99.90;;;;;;7340482;32;20186;-58
2024/01/23 10:02:21;;;;;;;15.25;2.65;;;6.60;99.90;;;;;;7342430;32;20228;-57
2024/01/23 10:06:24;;;;;;;15.38;2.47;;;6.60;99.90;;;;;;7337097;32;20260;-59
2024/01/23 10:10:27;;;;;;;21.95;3.17;;;6.80;99.90;;;;;;7345295;32;20123;-58
2024/01/23 10:14:30;;;;;;;18.95;2.22;;;6.90;99.90;;;;;;7337588;32;20099;-58
2024/01/23 10:18:32;;;;;;;18.08;2.78;;;6.90;99.90;;;;;;7337009;32;20115;-58
2024/01/23 10:22:35;;;;;;;19.98;2.95;;;6.90;99.90;;;;;;7339751;32;20450;-58
2024/01/23 10:26:37;;;;;;;21.52;2.58;;;7.00;99.90;;;;;;7344290;32;20135;-58
2024/01/23 10:30:45;;;;;;;16.45;3.37;;;7.10;99.90;;;;;;7339664;32;20123;-58
2024/01/23 10:34:51;;;;;;;20.88;3.05;;;7.20;99.90;;;;;;7338899;32;20158;-58
2024/01/23 10:38:54;;;;;;;21.70;3.33;;;7.20;99.90;;;;;;7337754;32;20439;-58
2024/01/23 10:42:57;;;;;;;16.25;2.83;;;7.30;99.90;;;;;;7339925;32;20453;-58
2024/01/23 10:46:58;;;;;;;16.73;2.87;;;7.50;99.90;;;;;;7337533;32;20213;-57
2024/01/23 10:51:10;;;;;;;15.35;2.58;;;7.50;99.90;;;;;;7335308;32;20277;-58
2024/01/23 10:55:13;;;;;;;17.30;2.70;;;7.40;99.90;;;;;;7342073;32;20133;-58
2024/01/23 10:59:18;;;;;;;15.52;2.87;;;7.50;99.90;;;;;;7339197;32;20588;-58
2024/01/23 11:03:25;;;;;;;19.65;3.67;;;7.60;99.90;;;;;;7335659;32;20111;-58
2024/01/23 11:07:48;;;;;;;18.42;2.90;;;7.60;99.90;;;;;;7338011;32;20517;-58
2024/01/23 11:12:36;;;;;;;21.75;3.60;;;7.80;99.90;;;;;;7340369;32;20107;-58
2024/01/23 11:16:38;;;;;;;20.33;3.30;;;7.80;99.90;;;;;;7336580;32;20147;-58
2024/01/23 11:20:40;;;;;;;16.20;2.80;;;7.70;99.90;;;;;;7338514;32;20598;-58
2024/01/23 11:24:45;;;;;;;18.73;3.20;;;7.90;99.90;;;;;;7340544;32;20154;-59
2024/01/23 11:28:56;;;;;;;18.55;2.70;;;7.80;99.90;;;;;;7340735;32;20174;-59
2024/01/23 11:33:23;;;;;;;19.83;2.90;;;7.80;99.90;;;;;;7345560;32;20237;-58
2024/01/23 11:37:38;;;;;;;19.92;3.05;;;8.00;99.90;;;;;;7340833;32;20119;-59
2024/01/23 11:41:46;;;;;;;23.20;3.12;;;8.10;99.90;;;;;;7347367;32;20191;-59
2024/01/23 11:45:50;;;;;;;23.30;2.92;;;8.20;99.90;;;;;;7330658;32;20131;-59
2024/01/23 11:49:52;;;;;;;22.10;3.17;;;8.30;99.90;;;;;;7337550;32;20530;-59
2024/01/23 11:53:58;;;;;;;17.40;3.08;;;8.20;99.90;;;;;;7341108;32;20114;-59
2024/01/23 11:58:01;;;;;;;25.02;3.05;;;8.40;99.90;;;;;;7340061;32;20391;-57
2024/01/23 12:02:04;;;;;;;18.75;2.67;;;8.40;99.90;;;;;;7344382;32;20136;-56
2024/01/23 12:06:06;;;;;;;16.67;2.30;;;8.50;99.90;;;;;;7338734;32;20242;-55
2024/01/23 12:10:17;;;;;;;13.43;2.50;;;8.40;99.90;;;;;;7338306;32;20091;-57
2024/01/23 12:14:21;;;;;;;17.92;2.80;;;8.40;99.90;;;;;;7340540;32;20174;-57
2024/01/23 12:18:23;;;;;;;24.73;3.03;;;8.50;99.90;;;;;;7341250;32;20475;-56
2024/01/23 12:22:25;;;;;;;23.38;3.78;;;8.60;99.90;;;;;;7342132;32;20116;-57
2024/01/23 12:26:27;;;;;;;19.00;2.70;;;8.60;99.90;;;;;;7339283;32;20107;-57
2024/01/23 12:30:29;;;;;;;21.98;3.08;;;8.70;99.90;;;;;;7341024;32;20607;-57
2024/01/23 12:34:31;;;;;;;21.08;2.72;;;8.70;99.90;;;;;;7341002;32;20157;-58
2024/01/23 12:38:35;;;;;;;23.65;3.05;;;8.80;99.90;;;;;;7336833;32;20516;-59
2024/01/23 12:42:40;;;;;;;21.42;3.08;;;9.00;99.90;;;;;;7338416;32;20120;-60
2024/01/23 12:46:42;;;;;;;20.98;2.95;;;8.90;99.90;;;;;;7338686;32;20222;-59
2024/01/23 12:50:44;;;;;;;21.73;2.92;;;8.80;99.90;;;;;;7337520;32;20143;-58
2024/01/23 12:54:46;;;;;;;17.27;3.55;;;8.60;99.90;;;;;;7340494;32;20123;-59
2024/01/23 12:58:48;;;;;;;17.17;2.85;;;8.60;99.90;;;;;;7339285;32;20296;-59
2024/01/23 13:02:49;;;;;;;15.93;2.65;;;8.70;99.90;;;;;;7334403;32;20238;-60
2024/01/23 13:06:51;;;;;;;16.37;2.87;;;8.60;99.90;;;;;;7335568;32;20252;-59
2024/01/23 13:10:55;;;;;;;10.98;2.10;;;8.70;99.90;;;;;;7336341;32;20576;-60
2024/01/23 13:14:57;;;;;;;23.15;3.12;;;8.60;99.90;;;;;;7342817;32;20559;-59
2024/01/23 13:18:59;;;;;;;21.17;2.87;;;8.60;99.90;;;;;;7332649;32;20226;-59
2024/01/23 13:23:01;;;;;;;25.55;3.22;;;8.60;99.90;;;;;;7333475;32;20234;-59
2024/01/23 13:27:06;;;;;;;24.33;3.33;;;8.60;99.90;;;;;;7341346;32;20129;-57
2024/01/23 13:31:08;;;;;;;30.85;3.35;;;8.60;99.90;;;;;;7336923;32;20119;-59
2024/01/23 13:35:11;;;;;;;25.25;3.42;;;8.60;99.90;;;;;;7339913;32;20230;-59
2024/01/23 13:39:18;;;;;;;25.42;2.95;;;8.60;99.90;;;;;;7334465;32;20276;-60
2024/01/23 13:43:19;;;;;;;26.53;8.03;;;8.60;99.90;;;;;;7334893;32;20259;-58
2024/01/23 13:47:22;;;;;;;20.83;3.08;;;8.90;99.90;;;;;;7339810;32;20827;-60
2024/01/23 13:51:48;;;;;;;26.10;4.03;;;8.90;99.90;;;;;;7336662;32;20254;-59
2024/01/23 13:55:51;;;;;;;16.40;3.08;;;8.90;99.90;;;;;;7340424;32;20193;-59
2024/01/23 13:59:53;;;;;;;27.25;3.00;;;8.90;99.90;;;;;;7341318;32;20327;-60
2024/01/23 14:03:55;;;;;;;17.85;3.03;;;9.00;99.90;;;;;;7342410;32;20099;-59
2024/01/23 14:07:57;;;;;;;25.20;3.70;;;9.00;99.90;;;;;;7339891;32;20130;-60
2024/01/23 14:11:59;;;;;;;31.08;3.42;;;9.00;99.90;;;;;;7336158;32;20256;-59
2024/01/23 14:16:01;;;;;;;20.42;3.17;;;8.90;99.90;;;;;;7339347;32;20206;-60
2024/01/23 14:20:04;;;;;;;19.45;3.58;;;8.90;99.90;;;;;;7336492;32;20240;-59
2024/01/23 14:24:06;;;;;;;17.65;3.25;;;8.80;99.90;;;;;;7333331;32;20164;-59
2024/01/23 14:28:09;;;;;;;21.83;2.80;;;8.80;99.90;;;;;;7330777;32;20254;-58
2024/01/23 14:32:11;;;;;;;21.08;2.92;;;8.70;99.90;;;;;;7339069;32;20123;-59
2024/01/23 14:36:14;;;;;;;17.58;3.10;;;8.70;99.90;;;;;;7338965;32;20186;-59
2024/01/23 14:40:16;;;;;;;24.35;3.03;;;8.70;99.90;;;;;;7340314;32;20111;-59
2024/01/23 14:44:18;;;;;;;16.33;3.05;;;8.70;99.90;;;;;;7333965;32;20792;-59
2024/01/23 14:48:22;;;;;;;22.17;3.30;;;8.70;99.90;;;;;;7336357;32;20107;-58
2024/01/23 14:52:24;;;;;;;25.25;3.75;;;8.60;99.90;;;;;;7338916;32;20205;-57
2024/01/23 14:56:26;;;;;;;18.62;3.30;;;8.60;99.90;;;;;;7337360;32;20151;-58
2024/01/23 15:00:28;;;;;;;24.20;3.28;;;8.60;99.90;;;;;;7337008;32;20131;-57
2024/01/23 15:04:30;;;;;;;23.33;3.50;;;8.50;99.90;;;;;;7344540;32;20202;-57
2024/01/23 15:08:32;;;;;;;16.80;2.45;;;8.30;99.90;;;;;;7342004;32;20361;-58
2024/01/23 15:12:35;;;;;;;28.52;3.42;;;8.20;99.90;;;;;;7338117;32;20291;-57
2024/01/23 15:16:37;;;;;;;18.73;3.62;;;8.10;99.90;;;;;;7339165;32;20174;-58
2024/01/23 15:20:40;;;;;;;21.50;3.15;;;8.00;99.90;;;;;;7345416;32;20142;-56
2024/01/23 15:24:42;;;;;;;19.62;3.17;;;7.90;99.90;;;;;;7346445;32;20207;-57
2024/01/23 15:28:44;;;;;;;23.42;3.67;;;7.90;99.90;;;;;;7344125;32;20163;-57
2024/01/23 15:32:45;;;;;;;15.73;2.70;;;7.80;99.90;;;;;;7340856;32;20206;-58
2024/01/23 15:36:48;;;;;;;27.50;3.90;;;7.70;99.90;;;;;;7343643;32;20222;-58
2024/01/23 15:40:50;;;;;;;21.65;2.80;;;7.70;99.90;;;;;;7342850;32;20139;-58
2024/01/23 15:44:52;;;;;;;23.80;3.62;;;7.70;99.90;;;;;;7342397;32;20187;-57
2024/01/23 15:48:54;;;;;;;19.67;3.33;;;7.60;99.90;;;;;;7339394;32;20600;-57
2024/01/23 15:52:56;;;;;;;20.50;3.12;;;7.60;99.90;;;;;;7336968;32;20154;-58
2024/01/23 15:56:58;;;;;;;21.20;3.35;;;7.50;99.90;;;;;;7346747;32;20673;-59
2024/01/23 16:01:00;;;;;;;21.50;3.25;;;7.50;99.90;;;;;;7344497;32;20195;-58
2024/01/23 16:05:02;;;;;;;18.98;3.35;;;7.40;99.90;;;;;;7340078;32;20330;-58
2024/01/23 16:09:05;;;;;;;16.67;3.37;;;7.40;99.90;;;;;;7340210;32;20530;-59
2024/01/23 16:13:07;;;;;;;20.50;2.87;;;7.40;99.90;;;;;;7343049;32;20554;-59
2024/01/23 16:17:09;;;;;;;22.98;3.03;;;7.40;99.90;;;;;;7342149;32;20112;-57
2024/01/23 16:21:11;;;;;;;20.17;2.65;;;7.40;99.90;;;;;;7340991;32;20171;-57
2024/01/23 16:25:13;;;;;;;16.55;3.00;;;7.40;99.90;;;;;;7339204;32;20222;-57
2024/01/23 16:29:14;;;;;;;25.33;3.05;;;7.40;99.90;;;;;;7340937;32;20119;-58
2024/01/23 16:33:16;;;;;;;20.25;2.83;;;7.40;99.90;;;;;;7341944;32;20562;-58
2024/01/23 16:37:19;;;;;;;12.80;2.45;;;7.30;99.90;;;;;;7344478;32;20275;-57
2024/01/23 16:41:20;;;;;;;14.25;2.90;;;7.40;99.90;;;;;;7339359;32;20115;-58
2024/01/23 16:45:22;;;;;;;19.77;2.47;;;7.40;99.90;;;;;;7344188;32;20286;-58
2024/01/23 16:49:24;;;;;;;23.00;2.78;;;7.40;99.90;;;;;;7343044;32;20115;-58
2024/01/23 16:53:26;;;;;;;17.70;2.65;;;7.30;99.90;;;;;;7337953;32;20139;-58
2024/01/23 16:57:27;;;;;;;23.27;3.10;;;7.30;99.90;;;;;;7346163;32;20142;-58
2024/01/23 17:01:29;;;;;;;21.67;2.65;;;7.30;99.90;;;;;;7344963;32;20190;-58
2024/01/23 17:05:31;;;;;;;17.10;2.37;;;7.20;99.90;;;;;;7337612;32;20107;-57
2024/01/23 17:09:33;;;;;;;21.52;2.78;;;7.10;99.90;;;;;;7338439;32;20134;-58
2024/01/23 17:13:34;;;;;;;20.48;3.08;;;7.20;99.90;;;;;;7341357;32;20130;-57
2024/01/23 17:17:36;;;;;;;20.60;3.50;;;7.10;99.90;;;;;;7340871;32;20665;-57
2024/01/23 17:21:38;;;;;;;14.75;2.60;;;7.10;99.90;;;;;;7338127;32;20472;-59
2024/01/23 17:25:41;;;;;;;18.45;3.60;;;7.10;99.90;;;;;;7343330;32;20511;-58
2024/01/23 17:29:43;;;;;;;18.37;2.97;;;7.10;99.90;;;;;;7336634;32;20235;-58
2024/01/23 17:33:45;;;;;;;18.35;2.67;;;7.00;99.90;;;;;;7342382;32;20250;-58
2024/01/23 17:37:47;;;;;;;16.83;2.65;;;7.10;99.90;;;;;;7337284;32;20506;-59
2024/01/23 17:41:48;;;;;;;21.08;3.22;;;7.10;99.90;;;;;;7336005;32;20127;-58
2024/01/23 17:45:51;;;;;;;18.37;3.03;;;7.20;99.90;;;;;;7331955;32;20159;-59
2024/01/23 17:49:54;;;;;;;13.52;2.75;;;7.20;99.90;;;;;;7336411;32;20205;-57
2024/01/23 17:53:56;;;;;;;15.10;2.90;;;7.10;99.90;;;;;;7339003;32;20274;-56
2024/01/23 17:57:58;;;;;;;20.00;2.97;;;7.00;99.90;;;;;;7337067;32;20211;-58
2024/01/23 18:02:00;;;;;;;19.50;3.08;;;7.00;99.90;;;;;;7340217;32;20251;-56
2024/01/23 18:06:02;;;;;;;18.92;2.78;;;7.00;99.90;;;;;;7335620;32;20194;-56
2024/01/23 18:10:04;;;;;;;16.33;3.30;;;7.00;99.90;;;;;;7337749;32;20282;-58
2024/01/23 18:14:06;;;;;;;9.32;2.00;;;7.00;99.90;;;;;;7337829;32;20115;-58
2024/01/23 18:18:08;;;;;;;10.65;1.98;;;7.00;99.90;;;;;;7341295;32;20186;-57
2024/01/23 18:22:11;;;;;;;10.65;2.58;;;7.00;99.90;;;;;;7340592;32;20388;-57
2024/01/23 18:26:12;;;;;;;12.57;2.85;;;6.90;99.90;;;;;;7337015;32;20194;-57
2024/01/23 18:30:15;;;;;;;14.65;2.58;;;6.90;99.90;;;;;;7333362;32;20262;-57
2024/01/23 18:34:17;;;;;;;9.85;2.25;;;6.90;99.90;;;;;;7330448;32;20213;-57
2024/01/23 18:38:19;;;;;;;9.45;2.58;;;6.90;99.90;;;;;;7334058;32;20287;-64
2024/01/23 18:42:21;;;;;;;10.57;2.42;;;6.90;99.90;;;;;;7342739;32;20582;-67
2024/01/23 18:46:23;;;;;;;15.88;2.53;;;7.00;99.90;;;;;;7342669;32;20903;-59
2024/01/23 18:50:25;;;;;;;12.77;2.67;;;7.10;99.90;;;;;;7338919;32;20800;-58
2024/01/23 18:54:27;;;;;;;11.15;3.08;;;7.00;99.90;;;;;;7344764;32;20174;-58
2024/01/23 18:58:29;;;;;;;12.25;2.75;;;7.00;99.90;;;;;;7344588;32;20205;-58
2024/01/23 19:02:31;;;;;;;10.32;2.17;;;6.90;99.90;;;;;;7343133;32;20122;-58
2024/01/23 19:06:33;;;;;;;8.68;2.70;;;6.90;99.90;;;;;;7334600;32;20664;-58
2024/01/23 19:10:35;;;;;;;11.60;2.53;;;6.90;99.90;;;;;;7338596;32;20107;-59
2024/01/23 19:14:37;;;;;;;8.88;2.17;;;6.90;99.90;;;;;;7340024;32;20107;-58
2024/01/23 19:18:39;;;;;;;9.18;2.42;;;6.90;99.90;;;;;;7337868;32;20168;-58
2024/01/23 19:22:40;;;;;;;16.30;3.17;;;6.90;99.90;;;;;;7342763;32;20136;-58
2024/01/23 19:26:43;;;;;;;12.82;2.70;;;6.90;99.90;;;;;;7342658;32;20225;-56
2024/01/23 19:30:45;;;;;;;8.65;2.67;;;6.90;99.90;;;;;;7344713;32;20159;-58
2024/01/23 19:34:47;;;;;;;10.68;2.37;;;6.90;99.90;;;;;;7346666;32;20111;-58
2024/01/23 19:38:50;;;;;;;8.65;2.10;;;7.00;99.90;;;;;;7343493;32;20367;-58
2024/01/23 19:42:52;;;;;;;9.20;2.00;;;7.00;99.90;;;;;;7344423;32;20361;-58
2024/01/23 19:46:56;;;;;;;8.20;2.45;;;7.00;99.90;;;;;;7339694;32;20703;-58
2024/01/23 19:50:59;;;;;;;11.48;2.12;;;7.10;99.90;;;;;;7336576;32;20112;-60
2024/01/23 19:55:01;;;;;;;8.50;1.73;;;7.10;99.90;;;;;;7344042;32;20135;-58
2024/01/23 19:59:03;;;;;;;9.27;2.20;;;7.20;99.90;;;;;;7343512;32;20213;-58
2024/01/23 20:03:05;;;;;;;7.30;1.62;;;7.20;99.90;;;;;;7341810;32;20203;-57
2024/01/23 20:07:07;;;;;;;8.98;1.70;;;7.20;99.90;;;;;;7339800;32;20165;-58
2024/01/23 20:11:09;;;;;;;10.90;2.87;;;7.30;99.90;;;;;;7345255;32;20246;-57
2024/01/23 20:15:14;;;;;;;10.18;1.58;;;7.40;99.90;;;;;;7335399;32;20994;-58
2024/01/23 20:19:16;;;;;;;7.10;2.12;;;7.40;99.90;;;;;;7341663;32;20486;-59
2024/01/23 20:23:18;;;;;;;8.23;1.70;;;7.50;99.90;;;;;;7342547;32;20176;-59
2024/01/23 20:27:21;;;;;;;5.35;1.73;;;7.60;99.90;;;;;;7342944;32;20115;-65
2024/01/23 20:31:23;;;;;;;7.10;2.17;;;7.70;99.90;;;;;;7334231;32;20127;-58
2024/01/23 20:35:25;;;;;;;6.62;1.52;;;7.90;99.90;;;;;;7343144;32;20099;-58
2024/01/23 20:39:26;;;;;;;10.00;2.62;;;7.90;99.90;;;;;;7339972;32;20130;-58
2024/01/23 20:43:28;;;;;;;10.15;2.20;;;7.90;99.90;;;;;;7344737;32;20227;-58
2024/01/23 20:47:30;;;;;;;7.22;2.37;;;7.90;99.90;;;;;;7338392;32;20247;-58
2024/01/23 20:51:32;;;;;;;9.43;2.80;;;8.00;99.90;;;;;;7333800;32;20154;-58
2024/01/23 20:55:34;;;;;;;11.85;2.65;;;8.00;99.90;;;;;;7342532;32;20247;-58
2024/01/23 20:59:35;;;;;;;6.00;1.50;;;8.20;99.90;;;;;;7342771;32;20108;-59
2024/01/23 21:03:37;;;;;;;5.75;1.58;;;8.50;99.90;;;;;;7335175;32;20198;-57